sensor_id;sensor_type;location;lat;lon;timestamp;temperature;humidity
17984;DHT22;9117;52.420;20.728;2023-04-16T00:01:02;8.50;70.30
17984;DHT22;9117;52.420;20.728;2023-04-16T00:03:30;8.40;70.90
17984;DHT22;9117;52.420;20.728;2023-04-16T00:05:59;8.40;73.80
17984;DHT22;9117;52.420;20.728;2023-04-16T00:08:30;8.30;72.50
17984;DHT22;9117;52.420;20.728;2023-04-16T00:10:58;8.40;68.50
17984;DHT22;9117;52.420;20.728;2023-04-16T00:13:26;8.40;62.90
17984;DHT22;9117;52.420;20.728;2023-04-16T00:15:54;8.30;76.20
17984;DHT22;9117;52.420;20.728;2023-04-16T00:18:23;8.30;72.10
17984;DHT22;9117;52.420;20.728;2023-04-16T00:20:51;8.30;79.50
17984;DHT22;9117;52.420;20.728;2023-04-16T00:23:20;8.30;72.80
17984;DHT22;9117;52.420;20.728;2023-04-16T00:25:52;8.30;72.20
17984;DHT22;9117;52.420;20.728;2023-04-16T00:28:22;8.30;93.90
17984;DHT22;9117;52.420;20.728;2023-04-16T00:30:51;8.30;92.90
17984;DHT22;9117;52.420;20.728;2023-04-16T00:33:19;8.20;90.50
17984;DHT22;9117;52.420;20.728;2023-04-16T00:35:48;8.20;81.70
17984;DHT22;9117;52.420;20.728;2023-04-16T00:38:16;8.20;90.30
17984;DHT22;9117;52.420;20.728;2023-04-16T00:40:44;8.20;91.00
17984;DHT22;9117;52.420;20.728;2023-04-16T00:43:21;8.20;87.20
17984;DHT22;9117;52.420;20.728;2023-04-16T00:45:51;8.20;92.40
17984;DHT22;9117;52.420;20.728;2023-04-16T00:48:21;8.20;91.70
17984;DHT22;9117;52.420;20.728;2023-04-16T00:50:50;8.20;92.80
17984;DHT22;9117;52.420;20.728;2023-04-16T00:53:21;8.10;91.60
17984;DHT22;9117;52.420;20.728;2023-04-16T00:55:49;8.10;95.30
17984;DHT22;9117;52.420;20.728;2023-04-16T00:58:19;8.10;89.20
17984;DHT22;9117;52.420;20.728;2023-04-16T01:00:47;8.00;98.40
17984;DHT22;9117;52.420;20.728;2023-04-16T01:03:16;8.10;98.50
17984;DHT22;9117;52.420;20.728;2023-04-16T01:05:44;8.00;99.60
17984;DHT22;9117;52.420;20.728;2023-04-16T01:08:16;8.00;95.70
17984;DHT22;9117;52.420;20.728;2023-04-16T01:10:44;8.00;99.90
17984;DHT22;9117;52.420;20.728;2023-04-16T01:13:12;8.00;99.60
17984;DHT22;9117;52.420;20.728;2023-04-16T01:15:42;8.00;98.50
17984;DHT22;9117;52.420;20.728;2023-04-16T01:18:14;8.00;99.90
17984;DHT22;9117;52.420;20.728;2023-04-16T01:20:44;8.00;99.90
17984;DHT22;9117;52.420;20.728;2023-04-16T01:23:12;8.00;99.90
17984;DHT22;9117;52.420;20.728;2023-04-16T01:25:41;8.00;99.90
17984;DHT22;9117;52.420;20.728;2023-04-16T01:28:09;8.00;99.90
17984;DHT22;9117;52.420;20.728;2023-04-16T01:30:37;7.90;99.90
17984;DHT22;9117;52.420;20.728;2023-04-16T01:33:06;7.90;99.90
17984;DHT22;9117;52.420;20.728;2023-04-16T01:35:34;7.90;99.90
17984;DHT22;9117;52.420;20.728;2023-04-16T01:38:04;7.80;99.90
17984;DHT22;9117;52.420;20.728;2023-04-16T01:40:33;7.80;99.90
17984;DHT22;9117;52.420;20.728;2023-04-16T01:43:02;7.80;99.90
17984;DHT22;9117;52.420;20.728;2023-04-16T01:45:30;7.80;99.90
17984;DHT22;9117;52.420;20.728;2023-04-16T01:47:59;7.70;99.90
17984;DHT22;9117;52.420;20.728;2023-04-16T01:50:29;7.70;99.90
17984;DHT22;9117;52.420;20.728;2023-04-16T01:52:57;7.70;99.90
17984;DHT22;9117;52.420;20.728;2023-04-16T01:55:26;7.70;99.90
17984;DHT22;9117;52.420;20.728;2023-04-16T01:57:55;7.70;99.90
17984;DHT22;9117;52.420;20.728;2023-04-16T02:00:23;7.70;99.90
17984;DHT22;9117;52.420;20.728;2023-04-16T02:02:51;7.70;99.90
17984;DHT22;9117;52.420;20.728;2023-04-16T02:05:20;7.70;99.90
17984;DHT22;9117;52.420;20.728;2023-04-16T02:07:48;7.70;99.90
17984;DHT22;9117;52.420;20.728;2023-04-16T02:10:16;7.80;99.90
17984;DHT22;9117;52.420;20.728;2023-04-16T02:12:45;7.60;99.90
17984;DHT22;9117;52.420;20.728;2023-04-16T02:15:14;7.60;99.90
17984;DHT22;9117;52.420;20.728;2023-04-16T02:17:42;7.60;99.90
17984;DHT22;9117;52.420;20.728;2023-04-16T02:20:12;7.60;99.90
17984;DHT22;9117;52.420;20.728;2023-04-16T02:22:41;8.00;99.90
17984;DHT22;9117;52.420;20.728;2023-04-16T02:25:09;7.70;99.90
17984;DHT22;9117;52.420;20.728;2023-04-16T02:27:40;7.70;99.90
17984;DHT22;9117;52.420;20.728;2023-04-16T02:30:10;7.80;99.90
17984;DHT22;9117;52.420;20.728;2023-04-16T02:32:40;7.70;99.90
17984;DHT22;9117;52.420;20.728;2023-04-16T02:35:09;7.80;99.90
17984;DHT22;9117;52.420;20.728;2023-04-16T02:37:37;7.80;99.90
17984;DHT22;9117;52.420;20.728;2023-04-16T02:40:07;7.80;99.90
17984;DHT22;9117;52.420;20.728;2023-04-16T02:42:36;7.80;99.90
17984;DHT22;9117;52.420;20.728;2023-04-16T02:45:05;7.80;99.90
17984;DHT22;9117;52.420;20.728;2023-04-16T02:47:35;7.70;99.90
17984;DHT22;9117;52.420;20.728;2023-04-16T02:50:04;7.70;99.90
17984;DHT22;9117;52.420;20.728;2023-04-16T02:52:32;7.80;99.90
17984;DHT22;9117;52.420;20.728;2023-04-16T02:55:01;7.80;99.90
17984;DHT22;9117;52.420;20.728;2023-04-16T02:57:29;7.80;99.90
17984;DHT22;9117;52.420;20.728;2023-04-16T02:59:57;7.80;99.90
17984;DHT22;9117;52.420;20.728;2023-04-16T03:02:26;7.80;99.90
17984;DHT22;9117;52.420;20.728;2023-04-16T03:04:56;7.90;99.90
17984;DHT22;9117;52.420;20.728;2023-04-16T03:07:24;7.80;99.90
17984;DHT22;9117;52.420;20.728;2023-04-16T03:09:53;7.90;99.90
17984;DHT22;9117;52.420;20.728;2023-04-16T03:12:21;7.90;99.90
17984;DHT22;9117;52.420;20.728;2023-04-16T03:14:50;7.90;99.90
17984;DHT22;9117;52.420;20.728;2023-04-16T03:17:18;7.90;99.90
17984;DHT22;9117;52.420;20.728;2023-04-16T03:19:46;7.90;99.90
17984;DHT22;9117;52.420;20.728;2023-04-16T03:22:18;7.90;99.90
17984;DHT22;9117;52.420;20.728;2023-04-16T03:24:48;7.90;99.90
17984;DHT22;9117;52.420;20.728;2023-04-16T03:27:16;7.90;99.90
17984;DHT22;9117;52.420;20.728;2023-04-16T03:29:44;7.90;99.90
17984;DHT22;9117;52.420;20.728;2023-04-16T03:32:12;7.90;99.90
17984;DHT22;9117;52.420;20.728;2023-04-16T03:34:41;7.90;99.90
17984;DHT22;9117;52.420;20.728;2023-04-16T03:37:09;7.90;99.90
17984;DHT22;9117;52.420;20.728;2023-04-16T03:39:40;7.90;99.90
17984;DHT22;9117;52.420;20.728;2023-04-16T03:42:08;7.90;99.90
17984;DHT22;9117;52.420;20.728;2023-04-16T03:44:37;8.00;99.90
17984;DHT22;9117;52.420;20.728;2023-04-16T03:47:05;8.00;99.90
17984;DHT22;9117;52.420;20.728;2023-04-16T03:49:33;8.00;99.90
17984;DHT22;9117;52.420;20.728;2023-04-16T03:52:02;8.00;99.90
17984;DHT22;9117;52.420;20.728;2023-04-16T03:54:32;8.00;99.90
17984;DHT22;9117;52.420;20.728;2023-04-16T03:57:02;8.00;99.90
17984;DHT22;9117;52.420;20.728;2023-04-16T03:59:31;8.00;99.90
17984;DHT22;9117;52.420;20.728;2023-04-16T04:01:59;7.90;99.90
17984;DHT22;9117;52.420;20.728;2023-04-16T04:04:27;8.00;99.90
17984;DHT22;9117;52.420;20.728;2023-04-16T04:06:56;8.00;99.90
17984;DHT22;9117;52.420;20.728;2023-04-16T04:09:26;8.00;99.90
17984;DHT22;9117;52.420;20.728;2023-04-16T04:11:54;8.00;99.90
17984;DHT22;9117;52.420;20.728;2023-04-16T04:14:24;8.00;99.90
17984;DHT22;9117;52.420;20.728;2023-04-16T04:16:52;8.00;99.90
17984;DHT22;9117;52.420;20.728;2023-04-16T04:19:20;8.00;99.90
17984;DHT22;9117;52.420;20.728;2023-04-16T04:21:49;8.00;99.90
17984;DHT22;9117;52.420;20.728;2023-04-16T04:24:17;7.90;99.90
17984;DHT22;9117;52.420;20.728;2023-04-16T04:26:45;8.00;99.90
17984;DHT22;9117;52.420;20.728;2023-04-16T04:29:13;8.00;99.90
17984;DHT22;9117;52.420;20.728;2023-04-16T04:31:43;8.00;99.90
17984;DHT22;9117;52.420;20.728;2023-04-16T04:34:11;8.00;99.90
17984;DHT22;9117;52.420;20.728;2023-04-16T04:36:39;8.00;99.90
17984;DHT22;9117;52.420;20.728;2023-04-16T04:39:07;8.00;99.90
17984;DHT22;9117;52.420;20.728;2023-04-16T04:41:36;8.00;99.90
17984;DHT22;9117;52.420;20.728;2023-04-16T04:44:04;8.00;99.90
17984;DHT22;9117;52.420;20.728;2023-04-16T04:46:32;7.90;99.90
17984;DHT22;9117;52.420;20.728;2023-04-16T04:49:02;7.90;99.90
17984;DHT22;9117;52.420;20.728;2023-04-16T04:51:30;7.90;99.90
17984;DHT22;9117;52.420;20.728;2023-04-16T04:53:58;7.90;99.90
17984;DHT22;9117;52.420;20.728;2023-04-16T04:56:27;7.90;99.90
17984;DHT22;9117;52.420;20.728;2023-04-16T04:58:55;7.80;99.90
17984;DHT22;9117;52.420;20.728;2023-04-16T05:01:23;7.90;99.90
17984;DHT22;9117;52.420;20.728;2023-04-16T05:03:51;7.80;99.90
17984;DHT22;9117;52.420;20.728;2023-04-16T05:06:21;7.90;99.90
17984;DHT22;9117;52.420;20.728;2023-04-16T05:08:49;7.90;99.90
17984;DHT22;9117;52.420;20.728;2023-04-16T05:11:17;7.90;99.90
17984;DHT22;9117;52.420;20.728;2023-04-16T05:13:46;7.90;99.90
17984;DHT22;9117;52.420;20.728;2023-04-16T05:16:14;7.90;99.90
17984;DHT22;9117;52.420;20.728;2023-04-16T05:18:42;7.90;99.90
17984;DHT22;9117;52.420;20.728;2023-04-16T05:21:11;7.90;99.90
17984;DHT22;9117;52.420;20.728;2023-04-16T05:23:41;7.90;99.90
17984;DHT22;9117;52.420;20.728;2023-04-16T05:26:09;8.00;99.90
17984;DHT22;9117;52.420;20.728;2023-04-16T05:28:37;7.90;99.90
17984;DHT22;9117;52.420;20.728;2023-04-16T05:31:05;8.00;99.90
17984;DHT22;9117;52.420;20.728;2023-04-16T05:33:34;7.90;99.90
17984;DHT22;9117;52.420;20.728;2023-04-16T05:36:02;8.00;99.90
17984;DHT22;9117;52.420;20.728;2023-04-16T05:38:30;8.00;99.90
17984;DHT22;9117;52.420;20.728;2023-04-16T05:41:00;8.00;99.90
17984;DHT22;9117;52.420;20.728;2023-04-16T05:43:28;8.00;99.90
17984;DHT22;9117;52.420;20.728;2023-04-16T05:45:57;8.10;99.90
17984;DHT22;9117;52.420;20.728;2023-04-16T05:48:25;8.20;99.90
17984;DHT22;9117;52.420;20.728;2023-04-16T05:50:53;8.30;99.90
17984;DHT22;9117;52.420;20.728;2023-04-16T05:53:21;8.30;99.90
17984;DHT22;9117;52.420;20.728;2023-04-16T05:55:50;8.30;99.90
17984;DHT22;9117;52.420;20.728;2023-04-16T05:58:19;8.40;99.90
17984;DHT22;9117;52.420;20.728;2023-04-16T06:00:47;8.50;99.90
17984;DHT22;9117;52.420;20.728;2023-04-16T06:03:16;8.50;99.90
17984;DHT22;9117;52.420;20.728;2023-04-16T06:05:44;8.50;95.80
17984;DHT22;9117;52.420;20.728;2023-04-16T06:08:12;8.60;93.90
17984;DHT22;9117;52.420;20.728;2023-04-16T06:10:41;8.70;93.10
17984;DHT22;9117;52.420;20.728;2023-04-16T06:13:09;8.80;80.20
17984;DHT22;9117;52.420;20.728;2023-04-16T06:15:38;8.90;71.20
17984;DHT22;9117;52.420;20.728;2023-04-16T06:18:07;9.00;63.40
17984;DHT22;9117;52.420;20.728;2023-04-16T06:20:35;9.10;63.10
17984;DHT22;9117;52.420;20.728;2023-04-16T06:23:04;9.10;65.00
17984;DHT22;9117;52.420;20.728;2023-04-16T06:25:32;9.10;63.50
17984;DHT22;9117;52.420;20.728;2023-04-16T06:28:00;9.10;58.70
17984;DHT22;9117;52.420;20.728;2023-04-16T06:30:28;9.00;59.80
17984;DHT22;9117;52.420;20.728;2023-04-16T06:32:58;9.10;69.40
17984;DHT22;9117;52.420;20.728;2023-04-16T06:35:26;9.10;58.30
17984;DHT22;9117;52.420;20.728;2023-04-16T06:37:55;9.10;63.20
17984;DHT22;9117;52.420;20.728;2023-04-16T06:40:23;9.20;67.70
17984;DHT22;9117;52.420;20.728;2023-04-16T06:42:53;9.20;60.00
17984;DHT22;9117;52.420;20.728;2023-04-16T06:45:21;9.20;51.70
17984;DHT22;9117;52.420;20.728;2023-04-16T06:47:50;9.20;63.30
17984;DHT22;9117;52.420;20.728;2023-04-16T06:50:19;9.30;62.20
17984;DHT22;9117;52.420;20.728;2023-04-16T06:52:49;9.30;56.80
17984;DHT22;9117;52.420;20.728;2023-04-16T06:55:17;9.50;54.00
17984;DHT22;9117;52.420;20.728;2023-04-16T06:57:46;9.50;67.00
17984;DHT22;9117;52.420;20.728;2023-04-16T07:00:14;9.50;52.20
17984;DHT22;9117;52.420;20.728;2023-04-16T07:02:43;9.50;55.00
17984;DHT22;9117;52.420;20.728;2023-04-16T07:05:11;9.60;46.20
17984;DHT22;9117;52.420;20.728;2023-04-16T07:07:41;9.60;55.10
17984;DHT22;9117;52.420;20.728;2023-04-16T07:10:09;9.70;49.40
17984;DHT22;9117;52.420;20.728;2023-04-16T07:12:38;9.70;55.00
17984;DHT22;9117;52.420;20.728;2023-04-16T07:15:07;9.70;52.30
17984;DHT22;9117;52.420;20.728;2023-04-16T07:17:35;9.80;42.30
17984;DHT22;9117;52.420;20.728;2023-04-16T07:20:05;9.80;46.80
17984;DHT22;9117;52.420;20.728;2023-04-16T07:22:33;9.80;44.90
17984;DHT22;9117;52.420;20.728;2023-04-16T07:25:03;10.00;40.80
17984;DHT22;9117;52.420;20.728;2023-04-16T07:27:32;9.80;47.80
17984;DHT22;9117;52.420;20.728;2023-04-16T07:30:00;9.70;50.00
17984;DHT22;9117;52.420;20.728;2023-04-16T07:32:28;9.80;52.60
17984;DHT22;9117;52.420;20.728;2023-04-16T07:34:56;9.90;43.70
17984;DHT22;9117;52.420;20.728;2023-04-16T07:37:24;9.90;53.30
17984;DHT22;9117;52.420;20.728;2023-04-16T07:39:53;10.00;51.20
17984;DHT22;9117;52.420;20.728;2023-04-16T07:42:25;10.00;54.00
17984;DHT22;9117;52.420;20.728;2023-04-16T07:44:54;10.00;46.40
17984;DHT22;9117;52.420;20.728;2023-04-16T07:47:22;9.80;48.40
17984;DHT22;9117;52.420;20.728;2023-04-16T07:49:52;9.90;49.70
17984;DHT22;9117;52.420;20.728;2023-04-16T07:52:20;9.80;48.50
17984;DHT22;9117;52.420;20.728;2023-04-16T07:54:48;9.90;50.90
17984;DHT22;9117;52.420;20.728;2023-04-16T07:57:17;9.90;52.30
17984;DHT22;9117;52.420;20.728;2023-04-16T07:59:47;10.00;35.80
17984;DHT22;9117;52.420;20.728;2023-04-16T08:02:15;10.10;43.40
17984;DHT22;9117;52.420;20.728;2023-04-16T08:04:44;10.00;44.90
17984;DHT22;9117;52.420;20.728;2023-04-16T08:07:12;9.90;54.00
17984;DHT22;9117;52.420;20.728;2023-04-16T08:09:46;9.90;49.80
17984;DHT22;9117;52.420;20.728;2023-04-16T08:12:15;9.80;43.70
17984;DHT22;9117;52.420;20.728;2023-04-16T08:14:44;9.70;47.20
17984;DHT22;9117;52.420;20.728;2023-04-16T08:17:15;9.70;44.80
17984;DHT22;9117;52.420;20.728;2023-04-16T08:19:43;9.70;45.80
17984;DHT22;9117;52.420;20.728;2023-04-16T08:22:11;9.80;41.60
17984;DHT22;9117;52.420;20.728;2023-04-16T08:24:40;9.90;51.50
17984;DHT22;9117;52.420;20.728;2023-04-16T08:27:08;10.00;47.60
17984;DHT22;9117;52.420;20.728;2023-04-16T08:29:46;10.00;46.70
17984;DHT22;9117;52.420;20.728;2023-04-16T08:32:16;10.00;45.90
17984;DHT22;9117;52.420;20.728;2023-04-16T08:34:44;10.00;42.60
17984;DHT22;9117;52.420;20.728;2023-04-16T08:37:12;10.00;27.40
17984;DHT22;9117;52.420;20.728;2023-04-16T08:39:40;9.90;30.80
17984;DHT22;9117;52.420;20.728;2023-04-16T08:42:13;9.90;33.10
17984;DHT22;9117;52.420;20.728;2023-04-16T08:44:47;9.90;43.10
17984;DHT22;9117;52.420;20.728;2023-04-16T08:47:18;9.80;45.60
17984;DHT22;9117;52.420;20.728;2023-04-16T08:49:48;9.70;42.00
17984;DHT22;9117;52.420;20.728;2023-04-16T08:52:18;9.50;52.80
17984;DHT22;9117;52.420;20.728;2023-04-16T08:54:51;9.50;36.20
17984;DHT22;9117;52.420;20.728;2023-04-16T08:57:27;9.50;41.50
17984;DHT22;9117;52.420;20.728;2023-04-16T08:59:56;9.50;48.10
17984;DHT22;9117;52.420;20.728;2023-04-16T09:02:26;9.50;46.90
17984;DHT22;9117;52.420;20.728;2023-04-16T09:04:55;9.60;49.40
17984;DHT22;9117;52.420;20.728;2023-04-16T09:07:25;9.60;47.00
17984;DHT22;9117;52.420;20.728;2023-04-16T09:09:55;9.50;50.50
17984;DHT22;9117;52.420;20.728;2023-04-16T09:12:25;9.40;49.60
17984;DHT22;9117;52.420;20.728;2023-04-16T09:14:53;9.60;45.90
17984;DHT22;9117;52.420;20.728;2023-04-16T09:17:23;9.50;51.40
17984;DHT22;9117;52.420;20.728;2023-04-16T09:19:53;9.40;44.50
17984;DHT22;9117;52.420;20.728;2023-04-16T09:22:21;9.40;39.20
17984;DHT22;9117;52.420;20.728;2023-04-16T09:24:49;9.40;40.00
17984;DHT22;9117;52.420;20.728;2023-04-16T09:27:18;9.40;46.00
17984;DHT22;9117;52.420;20.728;2023-04-16T09:29:46;9.60;45.40
17984;DHT22;9117;52.420;20.728;2023-04-16T09:32:14;9.70;48.70
17984;DHT22;9117;52.420;20.728;2023-04-16T09:34:58;9.90;44.00
17984;DHT22;9117;52.420;20.728;2023-04-16T09:37:27;10.00;43.10
17984;DHT22;9117;52.420;20.728;2023-04-16T09:39:57;10.00;40.70
17984;DHT22;9117;52.420;20.728;2023-04-16T09:42:27;10.00;42.10
17984;DHT22;9117;52.420;20.728;2023-04-16T09:44:55;9.90;35.60
17984;DHT22;9117;52.420;20.728;2023-04-16T09:47:38;10.10;32.00
17984;DHT22;9117;52.420;20.728;2023-04-16T09:50:13;10.20;26.80
17984;DHT22;9117;52.420;20.728;2023-04-16T09:52:46;10.30;36.50
17984;DHT22;9117;52.420;20.728;2023-04-16T09:55:15;10.50;44.60
17984;DHT22;9117;52.420;20.728;2023-04-16T09:57:44;10.40;35.80
17984;DHT22;9117;52.420;20.728;2023-04-16T10:00:17;10.50;35.70
17984;DHT22;9117;52.420;20.728;2023-04-16T10:02:46;10.50;38.10
17984;DHT22;9117;52.420;20.728;2023-04-16T10:05:19;10.60;32.10
17984;DHT22;9117;52.420;20.728;2023-04-16T10:07:47;10.60;29.70
17984;DHT22;9117;52.420;20.728;2023-04-16T10:10:15;10.70;25.80
17984;DHT22;9117;52.420;20.728;2023-04-16T10:12:44;10.60;20.50
17984;DHT22;9117;52.420;20.728;2023-04-16T10:15:12;10.60;24.20
17984;DHT22;9117;52.420;20.728;2023-04-16T10:17:41;10.60;29.50
17984;DHT22;9117;52.420;20.728;2023-04-16T10:20:10;10.60;31.10
17984;DHT22;9117;52.420;20.728;2023-04-16T10:22:39;10.70;31.30
17984;DHT22;9117;52.420;20.728;2023-04-16T10:25:09;10.90;29.20
17984;DHT22;9117;52.420;20.728;2023-04-16T10:27:37;10.60;27.90
17984;DHT22;9117;52.420;20.728;2023-04-16T10:30:08;10.30;37.80
17984;DHT22;9117;52.420;20.728;2023-04-16T10:32:37;10.50;34.80
17984;DHT22;9117;52.420;20.728;2023-04-16T10:35:06;10.50;37.50
17984;DHT22;9117;52.420;20.728;2023-04-16T10:37:36;10.50;24.50
17984;DHT22;9117;52.420;20.728;2023-04-16T10:40:24;10.70;38.20
17984;DHT22;9117;52.420;20.728;2023-04-16T10:42:54;10.90;44.20
17984;DHT22;9117;52.420;20.728;2023-04-16T10:45:28;10.90;33.00
17984;DHT22;9117;52.420;20.728;2023-04-16T10:47:57;11.00;33.60
17984;DHT22;9117;52.420;20.728;2023-04-16T10:50:33;11.10;41.40
17984;DHT22;9117;52.420;20.728;2023-04-16T10:53:19;11.20;32.40
17984;DHT22;9117;52.420;20.728;2023-04-16T10:56:09;11.30;35.60
17984;DHT22;9117;52.420;20.728;2023-04-16T10:58:41;11.30;29.00
17984;DHT22;9117;52.420;20.728;2023-04-16T11:01:13;11.20;32.10
17984;DHT22;9117;52.420;20.728;2023-04-16T11:03:46;11.40;46.00
17984;DHT22;9117;52.420;20.728;2023-04-16T11:06:16;11.40;38.70
17984;DHT22;9117;52.420;20.728;2023-04-16T11:08:45;11.40;35.80
17984;DHT22;9117;52.420;20.728;2023-04-16T11:11:22;11.50;34.60
17984;DHT22;9117;52.420;20.728;2023-04-16T11:13:54;11.70;34.70
17984;DHT22;9117;52.420;20.728;2023-04-16T11:16:23;11.70;30.50
17984;DHT22;9117;52.420;20.728;2023-04-16T11:18:53;11.70;34.50
17984;DHT22;9117;52.420;20.728;2023-04-16T11:21:23;11.70;32.50
17984;DHT22;9117;52.420;20.728;2023-04-16T11:23:52;11.80;39.70
17984;DHT22;9117;52.420;20.728;2023-04-16T11:26:25;11.70;49.80
17984;DHT22;9117;52.420;20.728;2023-04-16T11:28:54;11.70;37.30
17984;DHT22;9117;52.420;20.728;2023-04-16T11:31:23;11.80;38.20
17984;DHT22;9117;52.420;20.728;2023-04-16T11:33:55;11.90;41.70
17984;DHT22;9117;52.420;20.728;2023-04-16T11:36:23;11.90;37.80
17984;DHT22;9117;52.420;20.728;2023-04-16T11:39:00;11.90;44.90
17984;DHT22;9117;52.420;20.728;2023-04-16T11:41:30;11.80;48.00
17984;DHT22;9117;52.420;20.728;2023-04-16T11:43:59;11.50;45.40
17984;DHT22;9117;52.420;20.728;2023-04-16T11:46:37;11.80;36.60
17984;DHT22;9117;52.420;20.728;2023-04-16T11:49:06;11.90;57.80
17984;DHT22;9117;52.420;20.728;2023-04-16T11:51:39;12.00;39.00
17984;DHT22;9117;52.420;20.728;2023-04-16T11:54:07;12.10;41.00
17984;DHT22;9117;52.420;20.728;2023-04-16T11:56:44;12.00;38.10
17984;DHT22;9117;52.420;20.728;2023-04-16T11:59:15;12.10;31.30
17984;DHT22;9117;52.420;20.728;2023-04-16T12:01:46;12.20;22.80
17984;DHT22;9117;52.420;20.728;2023-04-16T12:04:17;12.30;34.40
17984;DHT22;9117;52.420;20.728;2023-04-16T12:07:07;12.20;33.80
17984;DHT22;9117;52.420;20.728;2023-04-16T12:09:36;12.10;16.90
17984;DHT22;9117;52.420;20.728;2023-04-16T12:12:24;12.00;27.30
17984;DHT22;9117;52.420;20.728;2023-04-16T12:14:53;12.10;26.20
17984;DHT22;9117;52.420;20.728;2023-04-16T12:17:23;12.10;33.10
17984;DHT22;9117;52.420;20.728;2023-04-16T12:19:54;12.10;39.40
17984;DHT22;9117;52.420;20.728;2023-04-16T12:22:30;12.20;25.90
17984;DHT22;9117;52.420;20.728;2023-04-16T12:25:02;12.10;17.90
17984;DHT22;9117;52.420;20.728;2023-04-16T12:27:45;12.10;23.60
17984;DHT22;9117;52.420;20.728;2023-04-16T12:30:19;12.10;29.50
17984;DHT22;9117;52.420;20.728;2023-04-16T12:32:49;12.20;31.60
17984;DHT22;9117;52.420;20.728;2023-04-16T12:35:28;12.40;33.20
17984;DHT22;9117;52.420;20.728;2023-04-16T12:37:57;12.40;24.90
17984;DHT22;9117;52.420;20.728;2023-04-16T12:40:25;12.60;24.60
17984;DHT22;9117;52.420;20.728;2023-04-16T12:42:55;12.70;22.70
17984;DHT22;9117;52.420;20.728;2023-04-16T12:45:23;12.70;23.90
17984;DHT22;9117;52.420;20.728;2023-04-16T12:47:52;12.80;18.80
17984;DHT22;9117;52.420;20.728;2023-04-16T12:50:21;12.80;25.10
17984;DHT22;9117;52.420;20.728;2023-04-16T12:52:50;12.90;26.40
17984;DHT22;9117;52.420;20.728;2023-04-16T12:55:18;12.90;25.40
17984;DHT22;9117;52.420;20.728;2023-04-16T12:57:47;12.90;19.80
17984;DHT22;9117;52.420;20.728;2023-04-16T13:00:17;12.90;19.60
17984;DHT22;9117;52.420;20.728;2023-04-16T13:02:46;13.00;12.30
17984;DHT22;9117;52.420;20.728;2023-04-16T13:05:14;13.10;23.70
17984;DHT22;9117;52.420;20.728;2023-04-16T13:07:45;13.20;33.30
17984;DHT22;9117;52.420;20.728;2023-04-16T13:10:13;13.10;21.90
17984;DHT22;9117;52.420;20.728;2023-04-16T13:12:42;13.20;18.40
17984;DHT22;9117;52.420;20.728;2023-04-16T13:15:12;13.00;25.00
17984;DHT22;9117;52.420;20.728;2023-04-16T13:17:41;13.00;23.80
17984;DHT22;9117;52.420;20.728;2023-04-16T13:20:10;13.10;26.10
17984;DHT22;9117;52.420;20.728;2023-04-16T13:22:38;13.10;27.60
17984;DHT22;9117;52.420;20.728;2023-04-16T13:25:07;13.00;33.90
17984;DHT22;9117;52.420;20.728;2023-04-16T13:27:36;13.00;24.10
17984;DHT22;9117;52.420;20.728;2023-04-16T13:30:05;13.20;23.30
17984;DHT22;9117;52.420;20.728;2023-04-16T13:32:33;14.10;24.10
17984;DHT22;9117;52.420;20.728;2023-04-16T13:35:03;14.90;34.90
17984;DHT22;9117;52.420;20.728;2023-04-16T13:37:33;15.60;27.00
17984;DHT22;9117;52.420;20.728;2023-04-16T13:40:01;16.00;27.40
17984;DHT22;9117;52.420;20.728;2023-04-16T13:42:29;16.30;28.70
17984;DHT22;9117;52.420;20.728;2023-04-16T13:44:58;16.90;38.50
17984;DHT22;9117;52.420;20.728;2023-04-16T13:47:27;17.30;51.90
17984;DHT22;9117;52.420;20.728;2023-04-16T13:49:55;17.40;51.50
17984;DHT22;9117;52.420;20.728;2023-04-16T13:52:25;16.90;53.70
17984;DHT22;9117;52.420;20.728;2023-04-16T13:54:53;16.40;58.60
17984;DHT22;9117;52.420;20.728;2023-04-16T13:57:25;16.00;56.80
17984;DHT22;9117;52.420;20.728;2023-04-16T13:59:54;15.60;58.00
17984;DHT22;9117;52.420;20.728;2023-04-16T14:02:22;15.10;65.00
17984;DHT22;9117;52.420;20.728;2023-04-16T14:04:51;15.00;64.60
17984;DHT22;9117;52.420;20.728;2023-04-16T14:07:20;15.00;58.40
17984;DHT22;9117;52.420;20.728;2023-04-16T14:09:53;14.40;63.20
17984;DHT22;9117;52.420;20.728;2023-04-16T14:12:21;14.40;65.50
17984;DHT22;9117;52.420;20.728;2023-04-16T14:14:49;15.20;61.70
17984;DHT22;9117;52.420;20.728;2023-04-16T14:17:18;15.10;63.10
17984;DHT22;9117;52.420;20.728;2023-04-16T14:19:46;15.00;63.10
17984;DHT22;9117;52.420;20.728;2023-04-16T14:22:14;15.00;59.10
17984;DHT22;9117;52.420;20.728;2023-04-16T14:24:44;14.80;58.50
17984;DHT22;9117;52.420;20.728;2023-04-16T14:27:13;15.20;62.60
17984;DHT22;9117;52.420;20.728;2023-04-16T14:29:42;16.10;57.00
17984;DHT22;9117;52.420;20.728;2023-04-16T14:32:12;15.80;60.70
17984;DHT22;9117;52.420;20.728;2023-04-16T14:34:40;15.40;59.10
17984;DHT22;9117;52.420;20.728;2023-04-16T14:37:08;16.20;59.50
17984;DHT22;9117;52.420;20.728;2023-04-16T14:39:36;17.00;58.60
17984;DHT22;9117;52.420;20.728;2023-04-16T14:42:05;17.40;56.40
17984;DHT22;9117;52.420;20.728;2023-04-16T14:44:35;17.70;53.80
17984;DHT22;9117;52.420;20.728;2023-04-16T14:47:03;18.00;53.80
17984;DHT22;9117;52.420;20.728;2023-04-16T14:49:32;18.40;60.10
17984;DHT22;9117;52.420;20.728;2023-04-16T14:52:01;18.90;55.40
17984;DHT22;9117;52.420;20.728;2023-04-16T14:54:31;18.90;56.00
17984;DHT22;9117;52.420;20.728;2023-04-16T14:56:59;19.00;59.20
17984;DHT22;9117;52.420;20.728;2023-04-16T14:59:29;19.10;54.80
17984;DHT22;9117;52.420;20.728;2023-04-16T15:01:59;19.40;61.90
17984;DHT22;9117;52.420;20.728;2023-04-16T15:04:28;19.60;55.70
17984;DHT22;9117;52.420;20.728;2023-04-16T15:06:57;20.10;54.00
17984;DHT22;9117;52.420;20.728;2023-04-16T15:09:26;20.20;55.70
17984;DHT22;9117;52.420;20.728;2023-04-16T15:11:54;20.30;57.00
17984;DHT22;9117;52.420;20.728;2023-04-16T15:14:22;21.00;52.40
17984;DHT22;9117;52.420;20.728;2023-04-16T15:16:51;20.90;54.60
17984;DHT22;9117;52.420;20.728;2023-04-16T15:19:21;21.00;51.00
17984;DHT22;9117;52.420;20.728;2023-04-16T15:21:49;20.60;55.60
17984;DHT22;9117;52.420;20.728;2023-04-16T15:24:18;20.50;47.10
17984;DHT22;9117;52.420;20.728;2023-04-16T15:26:46;20.00;49.30
17984;DHT22;9117;52.420;20.728;2023-04-16T15:29:15;19.70;48.40
17984;DHT22;9117;52.420;20.728;2023-04-16T15:31:43;19.40;57.10
17984;DHT22;9117;52.420;20.728;2023-04-16T15:34:11;18.80;54.60
17984;DHT22;9117;52.420;20.728;2023-04-16T15:36:41;18.90;54.00
17984;DHT22;9117;52.420;20.728;2023-04-16T15:39:09;19.00;54.70
17984;DHT22;9117;52.420;20.728;2023-04-16T15:41:38;19.00;51.90
17984;DHT22;9117;52.420;20.728;2023-04-16T15:44:26;19.20;53.60
17984;DHT22;9117;52.420;20.728;2023-04-16T15:46:54;18.60;50.00
17984;DHT22;9117;52.420;20.728;2023-04-16T15:49:22;18.40;59.10
17984;DHT22;9117;52.420;20.728;2023-04-16T15:51:52;18.00;51.00
17984;DHT22;9117;52.420;20.728;2023-04-16T15:54:21;17.70;55.30